createdAt,value
2023-02-03T00:00:00.406Z,84.80
2023-02-03T00:02:26.860Z,85.20
2023-02-03T00:04:53.304Z,85.30
2023-02-03T00:07:19.800Z,85.44
2023-02-03T00:09:46.362Z,86.22
2023-02-03T00:12:13.784Z,87.09
2023-02-03T00:14:40.242Z,87.92
2023-02-03T00:17:06.733Z,88.12
2023-02-03T00:19:33.243Z,88.07
2023-02-03T00:21:59.689Z,87.88
2023-02-03T00:24:26.234Z,87.41
2023-02-03T00:26:52.699Z,87.62
2023-02-03T00:29:21.567Z,87.68
2023-02-03T00:31:48.135Z,87.59
2023-02-03T00:34:14.724Z,87.52
2023-02-03T00:36:42.961Z,87.49
2023-02-03T00:39:09.510Z,87.40
2023-02-03T00:41:35.980Z,87.20
2023-02-03T00:44:02.455Z,87.04
2023-02-03T00:46:28.918Z,87.27
2023-02-03T00:48:55.345Z,87.00
2023-02-03T00:51:21.887Z,87.09
2023-02-03T00:53:48.608Z,87.42
2023-02-03T00:56:15.202Z,87.69
2023-02-03T00:58:41.847Z,87.65
2023-02-03T01:01:08.428Z,87.16
2023-02-03T01:03:34.993Z,86.85
2023-02-03T01:06:09.033Z,86.87
2023-02-03T01:08:35.471Z,87.17
2023-02-03T01:11:09.445Z,87.39
2023-02-03T01:13:36.499Z,87.85
2023-02-03T01:16:03.151Z,87.93
2023-02-03T01:18:29.713Z,88.10
2023-02-03T01:20:56.205Z,88.03
2023-02-03T01:23:22.788Z,87.94
2023-02-03T01:25:49.287Z,88.39
2023-02-03T01:28:15.760Z,87.66
2023-02-03T01:30:42.261Z,87.54
2023-02-03T01:33:08.735Z,87.34
2023-02-03T01:35:35.768Z,87.42
2023-02-03T01:38:02.187Z,87.66
2023-02-03T01:40:28.900Z,87.21
2023-02-03T01:42:55.474Z,87.04
2023-02-03T01:45:21.897Z,87.04
2023-02-03T01:47:48.282Z,87.15
2023-02-03T01:50:21.022Z,86.87
2023-02-03T01:52:49.849Z,86.99
2023-02-03T01:55:19.754Z,86.25
2023-02-03T01:57:48.902Z,86.51
2023-02-03T02:00:15.567Z,86.21
2023-02-03T02:02:44.026Z,86.14
2023-02-03T02:05:30.729Z,86.21
2023-02-03T02:07:58.621Z,86.56
2023-02-03T02:10:25.529Z,86.45
2023-02-03T02:12:54.448Z,85.88
2023-02-03T02:15:24.513Z,85.83
2023-02-03T02:17:53.927Z,85.83
2023-02-03T02:20:30.215Z,85.21
2023-02-03T02:23:15.185Z,85.11
2023-02-03T02:25:47.794Z,85.78
2023-02-03T02:28:20.407Z,85.35
2023-02-03T02:30:49.757Z,85.28
2023-02-03T02:33:28.220Z,85.18
2023-02-03T02:36:05.387Z,86.01
2023-02-03T02:38:34.662Z,86.34
2023-02-03T02:41:21.320Z,86.10
2023-02-03T02:43:52.965Z,86.41
2023-02-03T02:46:24.221Z,85.86
2023-02-03T02:49:04.793Z,86.20
2023-02-03T02:51:33.116Z,86.40
2023-02-03T02:54:02.610Z,86.13
2023-02-03T02:56:30.432Z,87.17
2023-02-03T02:58:58.063Z,87.87
2023-02-03T03:01:24.619Z,88.92
2023-02-03T03:03:51.310Z,89.36
2023-02-03T03:06:23.884Z,89.08
2023-02-03T03:08:57.120Z,89.24
2023-02-03T03:11:27.120Z,89.24
2023-02-03T03:13:54.422Z,88.90
2023-02-03T03:16:23.572Z,88.59
2023-02-03T03:18:53.726Z,88.83
2023-02-03T03:21:24.792Z,88.78
2023-02-03T03:23:52.311Z,88.81
2023-02-03T03:26:28.899Z,88.81
2023-02-03T03:29:00.670Z,88.69
2023-02-03T03:31:27.233Z,87.93
2023-02-03T03:33:53.818Z,88.33
2023-02-03T03:36:32.377Z,88.55
2023-02-03T03:39:03.990Z,88.36
2023-02-03T03:41:36.631Z,88.24
2023-02-03T03:44:04.965Z,88.13
2023-02-03T03:46:40.103Z,87.68
2023-02-03T03:49:08.617Z,87.41
2023-02-03T03:51:45.102Z,87.92
2023-02-03T03:54:13.163Z,87.86
2023-02-03T03:56:42.524Z,87.79
2023-02-03T03:59:11.175Z,87.27
2023-02-03T04:01:39.136Z,87.00
2023-02-03T04:04:07.248Z,85.66
2023-02-03T04:06:33.822Z,86.18
2023-02-03T04:09:02.198Z,85.86
2023-02-03T04:11:47.418Z,86.43
2023-02-03T04:14:13.845Z,86.26
2023-02-03T04:16:40.340Z,86.13
2023-02-03T04:19:08.411Z,86.16
2023-02-03T04:21:35.124Z,86.43
2023-02-03T04:24:01.571Z,86.54
2023-02-03T04:26:28.013Z,86.62
2023-02-03T04:28:54.474Z,86.50
2023-02-03T04:31:21.094Z,86.66
2023-02-03T04:33:47.581Z,86.82
2023-02-03T04:36:15.278Z,86.70
2023-02-03T04:38:41.717Z,86.62
2023-02-03T04:41:08.168Z,86.51
2023-02-03T04:43:34.591Z,86.58
2023-02-03T04:46:01.270Z,86.97
2023-02-03T04:48:28.165Z,86.79
2023-02-03T04:50:54.628Z,85.99
2023-02-03T04:53:21.238Z,85.96
2023-02-03T04:55:48.630Z,85.75
2023-02-03T04:58:15.090Z,86.05
2023-02-03T05:00:41.582Z,85.67
2023-02-03T05:03:08.120Z,85.21
2023-02-03T05:05:34.592Z,85.34
2023-02-03T05:08:01.083Z,84.98
2023-02-03T05:10:27.794Z,84.91
2023-02-03T05:12:54.399Z,85.05
2023-02-03T05:15:20.813Z,85.01
2023-02-03T05:17:47.268Z,85.30
2023-02-03T05:20:13.840Z,84.73
2023-02-03T05:22:40.338Z,85.03
2023-02-03T05:25:07.017Z,84.66
2023-02-03T05:27:33.509Z,84.54
2023-02-03T05:30:00.059Z,84.56
2023-02-03T05:32:27.131Z,84.42
2023-02-03T05:34:53.559Z,83.90
2023-02-03T05:37:20.000Z,84.50
2023-02-03T05:39:46.465Z,84.21
2023-02-03T05:42:13.089Z,84.90
2023-02-03T05:44:39.519Z,84.60
2023-02-03T05:47:05.985Z,84.75
2023-02-03T05:49:32.489Z,84.60
2023-02-03T05:51:59.198Z,84.76
2023-02-03T05:54:25.710Z,85.22
2023-02-03T05:56:52.325Z,84.95
2023-02-03T05:59:18.857Z,84.94
2023-02-03T06:01:45.396Z,85.17
2023-02-03T06:04:12.187Z,85.03
2023-02-03T06:06:38.788Z,85.11
2023-02-03T06:09:06.294Z,84.76
2023-02-03T06:11:33.556Z,84.32
2023-02-03T06:14:00.723Z,84.97
2023-02-03T06:16:27.913Z,84.88
2023-02-03T06:18:55.089Z,84.44
2023-02-03T06:21:22.381Z,84.43
2023-02-03T06:23:48.822Z,84.36
2023-02-03T06:26:15.344Z,84.36
2023-02-03T06:28:41.922Z,84.00
2023-02-03T06:31:08.502Z,84.23
2023-02-03T06:33:35.080Z,84.12
2023-02-03T06:36:01.529Z,83.96
2023-02-03T06:38:27.996Z,83.84
2023-02-03T06:40:54.429Z,83.81
2023-02-03T06:43:20.881Z,83.89
2023-02-03T06:45:47.533Z,83.64
2023-02-03T06:48:14.391Z,83.16
2023-02-03T06:50:41.242Z,83.61
2023-02-03T06:53:07.672Z,84.24
2023-02-03T06:55:34.171Z,84.32
2023-02-03T06:58:00.656Z,84.27
2023-02-03T07:00:27.447Z,84.13
2023-02-03T07:02:55.131Z,84.05
2023-02-03T07:05:22.084Z,84.25
2023-02-03T07:07:48.564Z,84.51
2023-02-03T07:10:15.085Z,84.40
2023-02-03T07:12:41.506Z,84.77
2023-02-03T07:15:08.274Z,84.54
2023-02-03T07:17:34.783Z,84.55
2023-02-03T07:20:01.230Z,84.15
2023-02-03T07:22:27.697Z,84.13
2023-02-03T07:24:54.203Z,84.13
2023-02-03T07:27:20.738Z,84.04
2023-02-03T07:29:47.257Z,84.20
2023-02-03T07:32:13.935Z,84.44
2023-02-03T07:34:40.438Z,84.11
2023-02-03T07:37:06.883Z,84.50
2023-02-03T07:39:34.055Z,83.87
2023-02-03T07:42:00.555Z,83.63
2023-02-03T07:44:27.052Z,83.75
2023-02-03T07:46:53.524Z,83.49
2023-02-03T07:49:20.198Z,83.92
2023-02-03T07:51:46.632Z,83.83
2023-02-03T07:54:13.110Z,83.38
2023-02-03T07:56:39.613Z,83.17
2023-02-03T07:59:06.184Z,83.13
2023-02-03T08:01:34.180Z,83.33
2023-02-03T08:04:02.116Z,83.06
2023-02-03T08:06:30.608Z,82.99
2023-02-03T08:08:57.057Z,82.81
2023-02-03T08:14:07.624Z,82.25
2023-02-03T08:16:34.140Z,82.11
2023-02-03T08:19:00.623Z,82.34
2023-02-03T08:21:27.064Z,81.92
2023-02-03T08:23:53.521Z,81.33
2023-02-03T08:26:19.968Z,81.28
2023-02-03T08:28:50.219Z,81.37
2023-02-03T08:31:16.851Z,80.60
2023-02-03T08:33:43.342Z,81.05
2023-02-03T08:36:11.301Z,80.69
2023-02-03T08:38:38.763Z,80.13
2023-02-03T08:41:09.183Z,79.16
2023-02-03T08:43:36.399Z,79.28
2023-02-03T08:46:03.745Z,79.87
2023-02-03T08:48:30.191Z,79.28
2023-02-03T08:50:56.652Z,79.13
2023-02-03T08:53:23.126Z,79.54
2023-02-03T08:55:49.679Z,78.58
2023-02-03T08:58:16.205Z,78.35
2023-02-03T09:00:43.113Z,78.97
2023-02-03T09:03:09.606Z,77.65
2023-02-03T09:05:36.368Z,77.96
2023-02-03T09:08:03.511Z,77.12
2023-02-03T09:10:30.224Z,77.12
2023-02-03T09:12:56.827Z,77.23
2023-02-03T09:15:23.275Z,77.51
2023-02-03T09:17:49.854Z,77.93
2023-02-03T09:20:16.520Z,77.59
2023-02-03T09:22:43.040Z,77.13
2023-02-03T09:25:09.719Z,76.37
2023-02-03T09:27:36.182Z,76.53
2023-02-03T09:30:02.661Z,77.30
2023-02-03T09:32:29.108Z,76.43
2023-02-03T09:34:55.538Z,75.60
2023-02-03T09:37:21.994Z,75.43
2023-02-03T09:39:48.914Z,76.56
2023-02-03T09:42:44.752Z,75.98
2023-02-03T09:45:18.303Z,76.61
2023-02-03T09:47:45.441Z,76.20
2023-02-03T09:50:19.783Z,76.85
2023-02-03T09:52:47.609Z,76.32
2023-02-03T09:55:25.804Z,75.80
2023-02-03T09:58:12.754Z,76.21
2023-02-03T10:00:42.371Z,76.41
2023-02-03T10:03:09.020Z,76.67
2023-02-03T10:05:47.609Z,76.35
2023-02-03T10:08:14.008Z,76.26
2023-02-03T10:11:10.008Z,76.58
2023-02-03T10:13:48.570Z,75.81
2023-02-03T10:16:50.306Z,75.77
2023-02-03T10:19:20.703Z,75.69
2023-02-03T10:21:49.999Z,75.01
2023-02-03T10:24:22.110Z,75.02
2023-02-03T10:26:49.198Z,75.42
2023-02-03T10:29:19.039Z,74.49
2023-02-03T10:31:47.545Z,74.92
2023-02-03T10:34:15.226Z,74.05
2023-02-03T10:36:41.638Z,73.07
2023-02-03T10:39:40.588Z,74.13
2023-02-03T10:42:07.292Z,73.98
2023-02-03T10:44:37.231Z,73.75
2023-02-03T10:47:15.346Z,73.45
2023-02-03T10:49:43.506Z,73.17
2023-02-03T10:52:24.001Z,73.78
2023-02-03T10:54:50.490Z,72.22
2023-02-03T10:57:17.004Z,73.52
2023-02-03T10:59:47.367Z,73.96
2023-02-03T11:02:22.722Z,72.29
2023-02-03T11:05:08.082Z,72.34
2023-02-03T11:07:34.512Z,71.32
2023-02-03T11:10:00.932Z,70.79
2023-02-03T11:12:27.399Z,71.83
2023-02-03T11:14:54.135Z,71.77
2023-02-03T11:17:22.917Z,72.55
2023-02-03T11:19:52.529Z,71.96
2023-02-03T11:22:30.242Z,71.51
2023-02-03T11:24:57.632Z,71.35
2023-02-03T11:27:25.466Z,72.20
2023-02-03T11:29:56.410Z,72.37
2023-02-03T11:32:29.142Z,72.55
2023-02-03T11:34:57.658Z,72.94
2023-02-03T11:37:27.166Z,72.45
2023-02-03T11:40:18.215Z,73.70
2023-02-03T11:42:45.947Z,73.42
2023-02-03T11:45:24.324Z,73.54
2023-02-03T11:47:56.507Z,73.55
2023-02-03T11:50:26.276Z,73.63
2023-02-03T11:52:52.907Z,73.86
2023-02-03T11:55:19.316Z,73.01
2023-02-03T11:58:04.741Z,72.74
2023-02-03T12:00:49.015Z,72.85
2023-02-03T12:03:15.602Z,72.18
2023-02-03T12:05:42.131Z,71.84
2023-02-03T12:08:31.662Z,72.54
2023-02-03T12:10:58.100Z,72.33
2023-02-03T12:13:32.304Z,72.88
2023-02-03T12:15:59.001Z,73.15
2023-02-03T12:18:44.266Z,73.19
2023-02-03T12:21:40.228Z,72.83
2023-02-03T12:24:29.914Z,72.98
2023-02-03T12:27:01.452Z,73.15
2023-02-03T12:29:32.483Z,73.97
2023-02-03T12:32:06.859Z,74.76
2023-02-03T12:34:52.181Z,75.50
2023-02-03T12:37:25.254Z,76.14
2023-02-03T12:40:14.368Z,77.29
2023-02-03T12:43:07.204Z,77.86
2023-02-03T12:45:37.809Z,79.28
2023-02-03T12:48:06.917Z,79.47
2023-02-03T12:50:46.292Z,79.56
2023-02-03T12:53:16.118Z,80.60
2023-02-03T12:55:47.908Z,81.39
2023-02-03T12:58:25.297Z,82.77
2023-02-03T13:00:51.802Z,82.85
2023-02-03T13:03:27.344Z,82.49
2023-02-03T13:06:02.853Z,82.65
2023-02-03T13:08:49.514Z,83.26
2023-02-03T13:11:19.078Z,83.96
2023-02-03T13:13:48.810Z,84.77
2023-02-03T13:16:17.126Z,84.60
2023-02-03T13:18:46.286Z,85.04
2023-02-03T13:21:12.785Z,85.79
2023-02-03T13:23:44.675Z,84.91
2023-02-03T13:26:18.556Z,85.42
2023-02-03T13:29:03.895Z,85.70
2023-02-03T13:31:42.746Z,86.04
2023-02-03T13:34:09.217Z,85.90
2023-02-03T13:36:38.780Z,85.51
2023-02-03T13:39:29.115Z,85.66
2023-02-03T13:41:57.328Z,85.38
2023-02-03T13:44:28.428Z,85.84
2023-02-03T13:46:56.584Z,85.57
2023-02-03T13:49:46.353Z,85.85
2023-02-03T13:52:27.314Z,86.38
2023-02-03T13:54:54.017Z,86.17
2023-02-03T13:57:22.385Z,86.76
2023-02-03T13:59:49.870Z,86.99
2023-02-03T14:02:19.401Z,87.37
2023-02-03T14:04:45.938Z,88.15
2023-02-03T14:07:31.791Z,87.76
2023-02-03T14:10:13.303Z,88.69
2023-02-03T14:12:52.105Z,88.37
2023-02-03T14:15:23.331Z,88.55
2023-02-03T14:17:52.792Z,88.86
2023-02-03T14:20:25.198Z,88.95
2023-02-03T14:22:54.616Z,89.03
2023-02-03T14:25:21.439Z,88.44
2023-02-03T14:27:48.722Z,88.85
2023-02-03T14:30:19.457Z,89.17
2023-02-03T14:32:49.379Z,88.98
2023-02-03T14:35:17.841Z,89.06
2023-02-03T14:37:52.506Z,88.84
2023-02-03T14:40:34.175Z,89.41
2023-02-03T14:43:10.504Z,89.53
2023-02-03T14:45:56.549Z,89.94
2023-02-03T14:48:41.524Z,90.28
2023-02-03T14:51:21.259Z,90.51
2023-02-03T14:53:53.784Z,90.40
2023-02-03T14:56:52.317Z,90.61
2023-02-03T14:59:22.131Z,91.23
2023-02-03T15:01:48.617Z,91.22
2023-02-03T15:04:15.022Z,91.85
2023-02-03T15:06:49.759Z,91.84
2023-02-03T15:09:19.294Z,91.85
2023-02-03T15:11:45.789Z,91.41
2023-02-03T15:14:19.631Z,91.85
2023-02-03T15:16:54.516Z,92.37
2023-02-03T15:19:22.989Z,92.25
2023-02-03T15:21:49.419Z,92.48
2023-02-03T15:24:19.152Z,92.57
2023-02-03T15:26:46.756Z,92.66
2023-02-03T15:29:24.854Z,93.10
2023-02-03T15:31:54.395Z,92.58
2023-02-03T15:34:20.951Z,92.62
2023-02-03T15:36:49.729Z,92.34
2023-02-03T15:39:34.966Z,92.61
2023-02-03T15:42:02.200Z,92.49
2023-02-03T15:44:32.854Z,92.41
2023-02-03T15:47:01.028Z,92.34
2023-02-03T15:49:32.809Z,92.30
2023-02-03T15:52:02.644Z,92.57
2023-02-03T15:54:41.076Z,92.54
2023-02-03T15:57:11.589Z,92.82
2023-02-03T15:59:40.490Z,93.04
2023-02-03T16:02:27.238Z,92.46
2023-02-03T16:04:54.326Z,93.18
2023-02-03T16:07:26.178Z,93.42
2023-02-03T16:09:56.436Z,93.94
2023-02-03T16:12:24.421Z,94.16
2023-02-03T16:14:51.570Z,94.09
2023-02-03T16:17:21.323Z,93.38
2023-02-03T16:19:51.303Z,93.70
2023-02-03T16:22:28.791Z,93.46
2023-02-03T16:24:56.231Z,93.49
2023-02-03T16:27:25.845Z,93.83
2023-02-03T16:30:11.063Z,93.67
2023-02-03T16:32:56.634Z,93.71
2023-02-03T16:35:41.793Z,93.92
2023-02-03T16:38:32.731Z,93.97
2023-02-03T16:41:18.026Z,93.89
2023-02-03T16:44:03.500Z,94.14
2023-02-03T16:46:48.289Z,94.16
2023-02-03T16:49:33.335Z,94.33
2023-02-03T16:51:59.881Z,94.76
2023-02-03T16:54:28.229Z,95.10
2023-02-03T16:56:58.445Z,95.21
2023-02-03T16:59:25.242Z,95.92
2023-02-03T17:01:51.821Z,96.37
2023-02-03T17:04:18.836Z,96.58
2023-02-03T17:06:45.455Z,96.44
2023-02-03T17:09:11.966Z,96.26
2023-02-03T17:11:39.223Z,96.97
2023-02-03T17:14:05.782Z,97.25
2023-02-03T17:16:33.421Z,97.11
2023-02-03T17:18:59.972Z,97.04
2023-02-03T17:21:27.431Z,97.46
2023-02-03T17:23:54.318Z,97.76
2023-02-03T17:26:20.788Z,97.60
2023-02-03T17:28:47.225Z,98.06
2023-02-03T17:31:15.399Z,97.93
2023-02-03T17:33:42.038Z,97.84
2023-02-03T17:36:15.900Z,97.29
2023-02-03T17:55:12.327Z,97.48
2023-02-03T17:57:38.824Z,97.43
2023-02-03T18:00:05.754Z,97.57
2023-02-03T18:02:32.211Z,97.07
2023-02-03T18:04:58.744Z,97.56
2023-02-03T18:07:25.195Z,97.06
2023-02-03T18:09:51.630Z,97.21
2023-02-03T18:12:18.220Z,97.32
2023-02-03T18:14:44.655Z,96.78
2023-02-03T18:17:11.142Z,97.06
2023-02-03T18:19:38.260Z,97.32
2023-02-03T18:22:04.829Z,97.20
2023-02-03T18:24:32.088Z,97.11
2023-02-03T18:27:00.419Z,96.81
2023-02-03T18:29:27.512Z,96.40
2023-02-03T18:31:54.114Z,96.28
2023-02-03T18:34:20.581Z,95.92
2023-02-03T18:36:47.249Z,95.56
2023-02-03T18:39:15.183Z,95.70
2023-02-03T18:41:41.775Z,95.73
2023-02-03T18:44:08.277Z,95.96
2023-02-03T18:46:34.822Z,96.10
2023-02-03T18:49:01.412Z,95.78
2023-02-03T18:51:28.033Z,96.22
2023-02-03T18:53:58.339Z,96.26
2023-02-03T18:56:26.505Z,95.99
2023-02-03T18:58:52.954Z,96.07
2023-02-03T19:01:26.844Z,96.02
2023-02-03T19:03:57.451Z,95.82
2023-02-03T19:06:24.411Z,95.66
2023-02-03T19:08:51.287Z,95.30
2023-02-03T19:11:18.358Z,95.48
2023-02-03T19:13:44.936Z,95.40
2023-02-03T19:16:12.565Z,95.15
2023-02-03T19:18:39.047Z,95.25
2023-02-03T19:21:05.590Z,95.44
2023-02-03T19:23:32.033Z,95.36
2023-02-03T19:25:58.560Z,95.28
2023-02-03T19:28:31.071Z,95.14
2023-02-03T19:31:07.999Z,94.95
2023-02-03T19:33:35.174Z,95.12
2023-02-03T19:36:01.835Z,95.01
2023-02-03T19:38:28.263Z,95.20
2023-02-03T19:40:54.741Z,95.24
2023-02-03T19:43:21.221Z,95.31
2023-02-03T19:45:47.662Z,95.21
2023-02-03T19:48:14.104Z,95.36
2023-02-03T19:50:45.801Z,95.20
2023-02-03T19:53:16.071Z,95.55
2023-02-03T19:55:43.101Z,95.90
2023-02-03T19:58:09.624Z,96.24
2023-02-03T20:00:36.094Z,96.30
2023-02-03T20:03:03.016Z,96.31
2023-02-03T20:05:29.884Z,96.56
2023-02-03T20:07:56.265Z,96.70
2023-02-03T20:10:26.243Z,96.35
2023-02-03T20:12:53.267Z,96.20
2023-02-03T20:15:19.935Z,96.17
2023-02-03T20:17:46.409Z,96.16
2023-02-03T20:20:12.921Z,96.58
2023-02-03T20:22:39.499Z,96.87
2023-02-03T20:25:06.701Z,97.23
2023-02-03T20:27:33.131Z,97.14
2023-02-03T20:29:59.597Z,96.83
2023-02-03T20:32:26.043Z,97.57
2023-02-03T20:34:52.526Z,98.21
2023-02-03T20:37:18.975Z,97.73
2023-02-03T20:39:45.432Z,97.83
2023-02-03T20:42:19.528Z,97.35
2023-02-03T20:44:46.039Z,98.26
2023-02-03T20:47:13.442Z,98.54
2023-02-03T20:49:40.097Z,98.61
2023-02-03T20:52:10.298Z,98.56
2023-02-03T20:54:37.160Z,98.31
2023-02-03T20:57:06.085Z,98.33
2023-02-03T20:59:32.646Z,98.79
2023-02-03T21:02:07.851Z,99.68
2023-02-03T21:04:52.976Z,99.40
2023-02-03T21:07:19.436Z,99.32
2023-02-03T21:09:45.883Z,99.26
2023-02-03T21:12:13.165Z,99.35
2023-02-03T21:14:42.009Z,99.42
2023-02-03T21:17:19.381Z,99.57
2023-02-03T21:19:46.283Z,99.94
2023-02-03T21:22:23.716Z,99.73
2023-02-03T21:24:57.892Z,99.45
2023-02-03T21:27:24.393Z,99.57
2023-02-03T21:29:51.881Z,100.00
2023-02-03T21:32:18.299Z,100.00
2023-02-03T21:34:45.205Z,99.58
2023-02-03T21:37:31.881Z,99.70
2023-02-03T21:39:58.340Z,100.00
2023-02-03T21:42:42.942Z,100.00
2023-02-03T21:45:19.859Z,100.00
2023-02-03T21:47:47.412Z,100.00
2023-02-03T21:50:26.015Z,100.00
2023-02-03T21:52:52.768Z,100.00
2023-02-03T21:55:19.283Z,100.00
2023-02-03T21:57:49.492Z,100.00
2023-02-03T22:00:34.630Z,100.00
2023-02-03T22:03:01.910Z,100.00
2023-02-03T22:05:28.378Z,100.00
2023-02-03T22:07:55.175Z,100.00
2023-02-03T22:10:21.642Z,100.00
2023-02-03T22:12:48.077Z,100.00
2023-02-03T22:15:14.539Z,100.00
2023-02-03T22:17:41.076Z,100.00
2023-02-03T22:20:07.616Z,100.00
2023-02-03T22:22:34.116Z,100.00
2023-02-03T22:25:00.551Z,100.00
2023-02-03T22:27:27.043Z,100.00
2023-02-03T22:29:56.394Z,100.00
2023-02-03T22:32:22.895Z,100.00
2023-02-03T22:34:49.353Z,100.00
2023-02-03T22:37:15.775Z,100.00
2023-02-03T22:39:42.232Z,100.00
2023-02-03T22:42:08.663Z,100.00
2023-02-03T22:44:35.084Z,100.00
2023-02-03T22:47:01.606Z,100.00
2023-02-03T22:49:28.032Z,100.00
2023-02-03T22:51:54.454Z,100.00
2023-02-03T22:54:21.020Z,100.00
2023-02-03T22:56:47.448Z,100.00
2023-02-03T22:59:13.883Z,100.00
2023-02-03T23:01:40.318Z,100.00
2023-02-03T23:04:06.738Z,100.00
2023-02-03T23:06:33.332Z,100.00
2023-02-03T23:08:59.754Z,100.00
2023-02-03T23:11:26.195Z,100.00
2023-02-03T23:13:52.620Z,100.00
2023-02-03T23:16:19.143Z,100.00
2023-02-03T23:18:45.598Z,100.00
2023-02-03T23:21:12.097Z,100.00
2023-02-03T23:23:38.519Z,100.00
2023-02-03T23:26:05.039Z,100.00
2023-02-03T23:28:31.534Z,100.00
2023-02-03T23:30:58.166Z,100.00
2023-02-03T23:33:24.633Z,100.00
2023-02-03T23:35:51.814Z,100.00
2023-02-03T23:38:18.369Z,100.00
2023-02-03T23:40:45.257Z,100.00
2023-02-03T23:43:11.953Z,100.00
2023-02-03T23:45:38.525Z,100.00
2023-02-03T23:48:05.212Z,100.00
2023-02-03T23:50:32.009Z,100.00
2023-02-03T23:52:58.626Z,100.00
2023-02-03T23:55:25.328Z,100.00
2023-02-03T23:57:53.584Z,100.00
